Time;durP1;ratioP1;P1;durP2;ratioP2;P2;SDS_P1;SDS_P2;PMS_P1;PMS_P2;Temp;Humidity;BMP_temperature;BMP_pressure;BME280_temperature;BME280_humidity;BME280_pressure;Samples;Min_cycle;Max_cycle;Signal;HPM_P1;HPM_P2
2021/08/07 00:03:30;;;;;;;3.97;2.10;;;;;;;;;;8252918;28;20379;-73
2021/08/07 00:07:51;;;;;;;6.78;3.08;;;;;;;;;;8258092;28;20464;-73
2021/08/07 00:11:57;;;;;;;4.28;2.65;;;;;;;;;;8259848;28;20472;-73
2021/08/07 00:16:02;;;;;;;6.95;2.58;;;;;;;;;;8257154;28;20492;-73
2021/08/07 00:20:08;;;;;;;8.73;3.53;;;;;;;;;;8256113;28;20463;-75
2021/08/07 00:24:11;;;;;;;9.05;3.25;;;;;;;;;;8257702;28;20345;-73
2021/08/07 00:28:17;;;;;;;8.38;3.97;;;;;;;;;;8256045;28;20488;-73
2021/08/07 00:32:22;;;;;;;11.00;4.03;;;;;;;;;;8257316;28;20506;-73
2021/08/07 00:36:42;;;;;;;6.22;3.50;;;;;;;;;;8255857;28;20391;-73
2021/08/07 00:40:47;;;;;;;14.57;3.97;;;;;;;;;;8240677;28;20460;-73
2021/08/07 00:44:52;;;;;;;5.65;3.15;;;;;;;;;;8255954;28;20460;-73
2021/08/07 00:48:58;;;;;;;15.20;3.33;;;;;;;;;;8254194;28;20071;-73
2021/08/07 00:53:05;;;;;;;7.60;2.92;;;;;;;;;;8255353;28;20477;-73
2021/08/07 00:57:11;;;;;;;10.80;3.83;;;;;;;;;;8256234;28;20048;-74
2021/08/07 01:01:18;;;;;;;9.32;4.45;;;;;;;;;;8256370;28;20418;-73
2021/08/07 01:05:34;;;;;;;18.65;5.47;;;;;;;;;;8255082;28;20494;-73
2021/08/07 01:10:20;;;;;;;16.48;6.40;;;;;;;;;;8255446;28;20469;-73
2021/08/07 01:14:36;;;;;;;14.27;5.10;;;;;;;;;;8243805;28;20395;-73
2021/08/07 01:18:44;;;;;;;15.27;3.97;;;;;;;;;;8255050;28;20448;-74
2021/08/07 01:23:23;;;;;;;9.00;3.17;;;;;;;;;;8240938;28;20435;-73
2021/08/07 01:27:39;;;;;;;8.38;2.72;;;;;;;;;;8261402;28;20080;-74
2021/08/07 01:31:55;;;;;;;7.43;3.50;;;;;;;;;;8246444;28;20453;-73
2021/08/07 01:36:19;;;;;;;6.40;3.50;;;;;;;;;;8261440;28;20379;-73
2021/08/07 01:40:30;;;;;;;6.18;2.97;;;;;;;;;;8262409;28;20678;-73
2021/08/07 01:44:47;;;;;;;6.28;3.42;;;;;;;;;;8261486;28;20045;-74
2021/08/07 01:49:17;;;;;;;7.95;3.58;;;;;;;;;;8260965;28;20040;-73
2021/08/07 01:53:29;;;;;;;9.93;3.95;;;;;;;;;;8261448;28;20360;-73
2021/08/07 01:57:44;;;;;;;5.40;3.33;;;;;;;;;;8245121;28;20456;-73
2021/08/07 02:01:51;;;;;;;6.57;3.00;;;;;;;;;;8245296;28;20495;-73
2021/08/07 02:06:15;;;;;;;6.05;2.97;;;;;;;;;;8247482;28;20407;-74
2021/08/07 02:10:20;;;;;;;13.90;3.28;;;;;;;;;;8261034;28;20375;-73
2021/08/07 02:14:28;;;;;;;8.65;3.45;;;;;;;;;;8261490;28;20337;-73
2021/08/07 02:18:39;;;;;;;7.70;3.15;;;;;;;;;;8244387;28;20037;-73
2021/08/07 02:22:50;;;;;;;6.95;3.78;;;;;;;;;;8259874;28;20551;-73
2021/08/07 02:26:57;;;;;;;10.40;3.40;;;;;;;;;;8260050;28;20340;-73
2021/08/07 02:31:02;;;;;;;5.82;3.40;;;;;;;;;;8241809;28;20490;-72
2021/08/07 02:35:15;;;;;;;7.13;3.15;;;;;;;;;;8245499;28;20491;-74
2021/08/07 02:39:19;;;;;;;4.88;2.95;;;;;;;;;;8257120;28;20061;-74
2021/08/07 02:43:27;;;;;;;7.43;3.40;;;;;;;;;;8259764;28;20341;-73
2021/08/07 02:47:34;;;;;;;5.60;3.17;;;;;;;;;;8243478;28;20490;-73
2021/08/07 02:51:42;;;;;;;7.13;3.83;;;;;;;;;;8258467;28;20464;-74
2021/08/07 02:55:47;;;;;;;6.65;3.40;;;;;;;;;;8259978;28;20494;-73
2021/08/07 03:00:00;;;;;;;6.35;3.58;;;;;;;;;;8257773;28;20472;-74
2021/08/07 03:04:05;;;;;;;17.80;4.65;;;;;;;;;;8241095;28;20060;-73
2021/08/07 03:08:12;;;;;;;8.82;3.90;;;;;;;;;;8258465;28;20407;-74
2021/08/07 03:12:21;;;;;;;9.70;4.50;;;;;;;;;;8243421;28;20478;-73
2021/08/07 03:16:28;;;;;;;10.38;3.92;;;;;;;;;;8258995;28;20063;-74
2021/08/07 03:20:35;;;;;;;5.05;3.42;;;;;;;;;;8257484;28;20371;-73
2021/08/07 03:24:45;;;;;;;5.63;3.08;;;;;;;;;;8257070;28;20511;-74
2021/08/07 03:28:51;;;;;;;6.40;4.03;;;;;;;;;;8258491;28;20126;-73
2021/08/07 03:32:59;;;;;;;11.37;3.80;;;;;;;;;;8259452;28;20457;-73
2021/08/07 03:37:03;;;;;;;6.60;3.50;;;;;;;;;;8256489;28;20526;-74
2021/08/07 03:41:12;;;;;;;14.18;6.50;;;;;;;;;;8258628;28;20345;-73
2021/08/07 03:45:18;;;;;;;16.85;6.35;;;;;;;;;;8256263;28;20064;-73
2021/08/07 03:49:26;;;;;;;;;;;;;;;;;;8258683;28;20448;-73
2021/08/07 03:53:31;;;;;;;18.52;5.25;;;;;;;;;;8256013;28;20343;-73
2021/08/07 03:57:50;;;;;;;20.88;6.75;;;;;;;;;;8258165;28;20423;-73
2021/08/07 04:02:05;;;;;;;32.20;9.88;;;;;;;;;;8258361;28;20417;-73
2021/08/07 04:06:11;;;;;;;21.50;6.70;;;;;;;;;;8240091;28;20368;-73
2021/08/07 04:10:17;;;;;;;9.52;4.30;;;;;;;;;;8256714;28;20349;-72
2021/08/07 04:14:24;;;;;;;8.52;4.38;;;;;;;;;;8256467;28;20475;-73
2021/08/07 04:18:29;;;;;;;7.90;3.97;;;;;;;;;;8257637;28;20068;-73
2021/08/07 04:22:34;;;;;;;8.25;3.97;;;;;;;;;;8255355;28;20045;-73
2021/08/07 04:26:39;;;;;;;11.80;3.78;;;;;;;;;;8255969;28;20368;-73
2021/08/07 04:30:48;;;;;;;14.90;3.85;;;;;;;;;;8256059;28;20367;-73
2021/08/07 04:34:53;;;;;;;8.85;3.80;;;;;;;;;;8257031;28;20490;-73
2021/08/07 04:38:59;;;;;;;11.48;4.03;;;;;;;;;;8255627;28;20383;-73
2021/08/07 04:43:04;;;;;;;6.70;3.80;;;;;;;;;;8256194;28;20467;-73
2021/08/07 04:47:10;;;;;;;7.13;3.30;;;;;;;;;;8240947;28;20487;-72
2021/08/07 04:51:15;;;;;;;10.10;5.20;;;;;;;;;;8254097;28;20379;-73
2021/08/07 04:55:22;;;;;;;10.60;5.18;;;;;;;;;;8240226;28;20506;-73
2021/08/07 04:59:27;;;;;;;10.95;5.13;;;;;;;;;;8260557;28;20456;-73
2021/08/07 05:03:33;;;;;;;8.52;5.35;;;;;;;;;;8261620;28;20459;-73
2021/08/07 05:07:43;;;;;;;10.20;5.03;;;;;;;;;;8262509;28;20475;-74
2021/08/07 05:11:49;;;;;;;9.35;5.40;;;;;;;;;;8262476;28;20040;-74
2021/08/07 05:15:54;;;;;;;13.65;6.28;;;;;;;;;;8262576;28;20344;-72
2021/08/07 05:20:00;;;;;;;12.80;6.15;;;;;;;;;;8246119;28;20486;-73
2021/08/07 05:24:10;;;;;;;17.02;6.05;;;;;;;;;;8261498;28;20356;-73
2021/08/07 05:28:15;;;;;;;13.00;6.10;;;;;;;;;;8244101;28;20459;-73
2021/08/07 05:32:23;;;;;;;9.10;5.23;;;;;;;;;;8261488;28;20375;-72
2021/08/07 05:36:27;;;;;;;8.88;4.43;;;;;;;;;;8261978;28;20371;-73
2021/08/07 05:40:31;;;;;;;9.48;5.13;;;;;;;;;;8260676;28;20483;-73
2021/08/07 05:44:37;;;;;;;8.23;4.78;;;;;;;;;;8260923;28;20367;-72
2021/08/07 05:48:42;;;;;;;14.10;4.85;;;;;;;;;;8259790;28;20487;-72
2021/08/07 05:52:47;;;;;;;9.18;4.32;;;;;;;;;;8261074;28;20363;-75
2021/08/07 05:56:55;;;;;;;10.10;3.78;;;;;;;;;;8262148;28;20053;-72
2021/08/07 06:01:00;;;;;;;7.07;3.90;;;;;;;;;;8242399;28;20072;-73
2021/08/07 06:05:05;;;;;;;7.75;3.00;;;;;;;;;;8259622;28;20671;-73
2021/08/07 06:09:10;;;;;;;7.55;3.13;;;;;;;;;;8261667;28;20064;-73
2021/08/07 06:13:15;;;;;;;7.63;3.13;;;;;;;;;;8243560;28;20372;-73
2021/08/07 06:17:20;;;;;;;5.00;2.92;;;;;;;;;;8259797;28;20502;-73
2021/08/07 06:21:26;;;;;;;9.75;2.92;;;;;;;;;;8259811;28;20353;-72
2021/08/07 06:25:31;;;;;;;5.57;2.90;;;;;;;;;;8260097;28;20439;-73
2021/08/07 06:29:36;;;;;;;6.25;2.90;;;;;;;;;;8261354;28;20464;-73
2021/08/07 06:33:42;;;;;;;7.45;2.53;;;;;;;;;;8189298;28;20360;-73
2021/08/07 06:39:33;;;;;;;4.90;2.38;;;;;;;;;;8256996;27;21043;-73
2021/08/07 06:43:39;;;;;;;4.80;2.65;;;;;;;;;;8267364;28;20376;-72
2021/08/07 06:47:52;;;;;;;4.97;2.75;;;;;;;;;;8253516;28;20033;-72
2021/08/07 06:51:58;;;;;;;4.95;2.30;;;;;;;;;;8267222;28;20476;-74
2021/08/07 06:56:05;;;;;;;4.20;2.38;;;;;;;;;;8267698;28;20460;-73
2021/08/07 07:00:12;;;;;;;5.03;2.50;;;;;;;;;;8235401;28;20489;-74
2021/08/07 07:04:19;;;;;;;12.55;3.20;;;;;;;;;;8250933;28;20472;-74
2021/08/07 07:08:24;;;;;;;5.28;2.60;;;;;;;;;;8252932;28;20479;-72
2021/08/07 07:12:30;;;;;;;7.93;3.50;;;;;;;;;;8250280;28;20476;-74
2021/08/07 07:16:37;;;;;;;8.57;3.10;;;;;;;;;;8250869;28;20053;-73
2021/08/07 07:20:43;;;;;;;14.27;3.33;;;;;;;;;;8267029;28;20087;-72
2021/08/07 07:24:49;;;;;;;10.87;4.33;;;;;;;;;;8251220;28;20358;-73
2021/08/07 07:28:56;;;;;;;13.65;4.78;;;;;;;;;;8251838;28;20511;-74
2021/08/07 07:33:02;;;;;;;8.60;3.80;;;;;;;;;;8250280;28;20472;-72
2021/08/07 07:37:08;;;;;;;6.18;2.38;;;;;;;;;;8263969;28;20061;-72
2021/08/07 07:41:16;;;;;;;6.00;2.92;;;;;;;;;;8266106;28;20403;-74
2021/08/07 07:45:22;;;;;;;5.47;2.67;;;;;;;;;;8249057;28;20334;-73
2021/08/07 07:49:28;;;;;;;7.10;2.42;;;;;;;;;;8238727;28;20333;-73
2021/08/07 07:53:34;;;;;;;9.25;2.28;;;;;;;;;;8245121;28;20358;-74
2021/08/07 07:57:39;;;;;;;7.25;3.15;;;;;;;;;;8244695;28;20063;-73
2021/08/07 08:01:45;;;;;;;6.10;2.70;;;;;;;;;;8244211;28;20372;-72
2021/08/07 08:05:51;;;;;;;7.32;3.08;;;;;;;;;;8243387;28;20045;-73
2021/08/07 08:09:56;;;;;;;8.77;3.13;;;;;;;;;;8227387;28;20376;-73
2021/08/07 08:14:01;;;;;;;15.38;3.08;;;;;;;;;;8226843;28;20514;-74
2021/08/07 08:18:07;;;;;;;10.52;3.30;;;;;;;;;;8244681;28;20361;-73
2021/08/07 08:22:14;;;;;;;11.73;4.22;;;;;;;;;;8243202;28;20494;-72
2021/08/07 08:26:21;;;;;;;11.88;3.78;;;;;;;;;;8226743;28;20465;-74
2021/08/07 08:30:27;;;;;;;11.30;3.42;;;;;;;;;;8242867;28;20068;-72
2021/08/07 08:34:33;;;;;;;9.77;3.25;;;;;;;;;;8243007;28;20360;-72
2021/08/07 08:38:38;;;;;;;12.52;3.30;;;;;;;;;;8243107;28;20356;-73
2021/08/07 08:42:44;;;;;;;5.00;2.50;;;;;;;;;;8241816;28;20468;-73
2021/08/07 08:46:52;;;;;;;2.67;1.70;;;;;;;;;;8227930;28;20373;-72
2021/08/07 08:50:57;;;;;;;;;;;;;;;;;;8227077;28;20488;-74
2021/08/07 08:55:04;;;;;;;1.25;1.10;;;;;;;;;;8242741;28;19921;-73
2021/08/07 08:59:10;;;;;;;2.72;1.30;;;;;;;;;;8240753;28;20516;-74
2021/08/07 09:03:16;;;;;;;2.88;1.15;;;;;;;;;;8226022;28;20029;-73
2021/08/07 09:07:24;;;;;;;2.70;1.30;;;;;;;;;;8241684;28;20469;-72
2021/08/07 09:11:28;;;;;;;1.65;1.08;;;;;;;;;;8241352;28;20148;-73
2021/08/07 09:15:42;;;;;;;2.33;1.35;;;;;;;;;;8224013;28;20334;-72
2021/08/07 09:20:01;;;;;;;3.95;1.48;;;;;;;;;;8227869;28;20395;-73
2021/08/07 09:24:09;;;;;;;5.85;1.73;;;;;;;;;;8227236;28;20414;-73
2021/08/07 09:28:18;;;;;;;6.03;1.52;;;;;;;;;;8225836;28;20049;-73
2021/08/07 09:32:23;;;;;;;2.13;1.00;;;;;;;;;;8240912;28;20379;-74
2021/08/07 09:36:49;;;;;;;3.08;1.38;;;;;;;;;;8225542;28;20486;-73
2021/08/07 09:41:04;;;;;;;5.40;1.15;;;;;;;;;;8225988;28;20395;-73
2021/08/07 09:45:14;;;;;;;5.03;1.30;;;;;;;;;;8240717;28;20076;-73
2021/08/07 09:49:35;;;;;;;1.40;1.15;;;;;;;;;;8225504;28;20429;-73
2021/08/07 09:53:42;;;;;;;1.95;1.13;;;;;;;;;;8225979;28;20163;-73
2021/08/07 09:58:00;;;;;;;2.63;1.30;;;;;;;;;;8208534;28;20369;-73
2021/08/07 10:02:32;;;;;;;3.88;1.00;;;;;;;;;;8224014;28;20484;-73
2021/08/07 10:06:42;;;;;;;2.75;0.90;;;;;;;;;;8241869;28;20457;-73
2021/08/07 10:10:51;;;;;;;1.70;1.17;;;;;;;;;;8224672;28;20057;-75
2021/08/07 10:14:59;;;;;;;2.40;1.00;;;;;;;;;;8239971;28;20341;-73
2021/08/07 10:19:08;;;;;;;3.30;1.17;;;;;;;;;;8238800;28;20357;-72
2021/08/07 10:23:14;;;;;;;1.60;0.80;;;;;;;;;;8223742;28;20457;-72
2021/08/07 10:27:21;;;;;;;1.42;1.02;;;;;;;;;;8224251;28;20322;-73
2021/08/07 10:31:34;;;;;;;1.42;0.80;;;;;;;;;;8224400;28;20354;-73
2021/08/07 10:35:42;;;;;;;2.38;0.98;;;;;;;;;;8225569;28;20449;-72
2021/08/07 10:39:52;;;;;;;4.07;0.75;;;;;;;;;;8239287;28;20386;-73
2021/08/07 10:44:00;;;;;;;5.05;0.82;;;;;;;;;;8225157;28;20527;-74
2021/08/07 10:48:06;;;;;;;2.08;0.88;;;;;;;;;;8239111;28;20376;-74
2021/08/07 10:52:23;;;;;;;3.05;0.80;;;;;;;;;;8207223;28;20461;-73
2021/08/07 10:56:33;;;;;;;1.95;0.70;;;;;;;;;;8225757;28;20042;-73
2021/08/07 11:00:39;;;;;;;0.98;0.80;;;;;;;;;;8239246;28;20408;-74
2021/08/07 11:04:53;;;;;;;1.90;0.55;;;;;;;;;;8222540;28;20041;-73
2021/08/07 11:09:38;;;;;;;2.28;0.88;;;;;;;;;;8223148;28;20350;-73
2021/08/07 11:13:43;;;;;;;0.88;0.60;;;;;;;;;;8222678;28;20344;-72
2021/08/07 11:17:52;;;;;;;1.27;0.80;;;;;;;;;;8223630;28;20042;-73
2021/08/07 11:21:58;;;;;;;2.28;1.15;;;;;;;;;;8223225;28;20357;-73
2021/08/07 11:26:05;;;;;;;0.73;0.68;;;;;;;;;;8229678;28;20326;-73
2021/08/07 11:30:33;;;;;;;4.72;1.10;;;;;;;;;;8229420;28;20049;-72
2021/08/07 11:34:49;;;;;;;1.48;1.13;;;;;;;;;;8231933;28;20445;-73
2021/08/07 11:39:03;;;;;;;4.30;1.10;;;;;;;;;;8227685;28;20371;-73
2021/08/07 11:43:27;;;;;;;1.92;1.02;;;;;;;;;;8246483;28;20364;-72
2021/08/07 11:47:33;;;;;;;1.50;1.08;;;;;;;;;;8229868;28;20448;-72
2021/08/07 11:51:39;;;;;;;1.55;0.80;;;;;;;;;;8229347;28;20072;-72
2021/08/07 11:55:44;;;;;;;1.55;0.88;;;;;;;;;;8228924;28;20045;-75
2021/08/07 11:59:50;;;;;;;1.40;0.93;;;;;;;;;;8226638;28;20365;-73
2021/08/07 12:03:56;;;;;;;1.55;1.02;;;;;;;;;;8230806;28;20778;-73
2021/08/07 12:08:05;;;;;;;1.27;0.90;;;;;;;;;;8244294;28;20471;-73
2021/08/07 12:12:10;;;;;;;1.38;0.80;;;;;;;;;;8244195;28;20416;-73
2021/08/07 12:16:41;;;;;;;2.58;0.75;;;;;;;;;;8228901;28;20159;-72
2021/08/07 12:20:47;;;;;;;1.52;0.80;;;;;;;;;;8227085;28;20080;-73
2021/08/07 12:25:03;;;;;;;0.95;0.70;;;;;;;;;;8243398;28;20484;-73
2021/08/07 12:29:12;;;;;;;3.05;1.40;;;;;;;;;;8227318;28;20076;-75
2021/08/07 12:33:22;;;;;;;0.80;0.70;;;;;;;;;;8227500;28;20041;-72
2021/08/07 12:37:27;;;;;;;1.38;1.00;;;;;;;;;;8242479;28;20054;-74
2021/08/07 12:41:34;;;;;;;1.42;0.77;;;;;;;;;;8229663;28;20041;-72
2021/08/07 12:45:40;;;;;;;1.08;0.75;;;;;;;;;;8226885;28;20067;-71
2021/08/07 12:49:45;;;;;;;1.15;0.70;;;;;;;;;;8242425;28;20041;-71
2021/08/07 12:53:51;;;;;;;1.63;0.68;;;;;;;;;;8241712;28;20471;-71
2021/08/07 12:58:10;;;;;;;1.30;0.80;;;;;;;;;;8225712;28;20457;-70
2021/08/07 13:02:16;;;;;;;2.00;0.70;;;;;;;;;;8226309;28;20499;-71
2021/08/07 13:06:22;;;;;;;6.15;0.80;;;;;;;;;;8228032;28;20469;-70
2021/08/07 13:10:31;;;;;;;4.43;0.98;;;;;;;;;;8226193;28;20107;-71
2021/08/07 13:14:46;;;;;;;1.58;0.77;;;;;;;;;;8229926;28;20064;-72
2021/08/07 13:19:17;;;;;;;2.67;0.95;;;;;;;;;;8225571;28;20041;-70
2021/08/07 13:23:37;;;;;;;3.67;0.60;;;;;;;;;;8241145;28;20045;-70
2021/08/07 13:27:46;;;;;;;0.57;0.57;;;;;;;;;;8225945;28;20053;-72
2021/08/07 13:31:53;;;;;;;4.38;0.70;;;;;;;;;;8226482;28;20372;-71
2021/08/07 13:36:00;;;;;;;2.20;0.73;;;;;;;;;;8224334;28;20071;-70
2021/08/07 13:40:06;;;;;;;3.92;1.00;;;;;;;;;;8225985;28;20053;-71
2021/08/07 13:44:12;;;;;;;2.03;0.80;;;;;;;;;;8224000;28;20360;-72
2021/08/07 13:48:19;;;;;;;1.58;0.90;;;;;;;;;;8223509;28;20045;-72
2021/08/07 13:52:24;;;;;;;1.00;0.65;;;;;;;;;;8226082;28;20053;-71
2021/08/07 13:56:30;;;;;;;1.23;0.80;;;;;;;;;;8225545;28;20498;-72
2021/08/07 14:00:35;;;;;;;2.08;0.65;;;;;;;;;;8240806;28;20037;-71
2021/08/07 14:04:42;;;;;;;1.02;0.40;;;;;;;;;;8225318;28;20076;-71
2021/08/07 14:08:49;;;;;;;1.92;0.80;;;;;;;;;;8226224;28;20076;-71
2021/08/07 14:12:54;;;;;;;;;;;;;;;;;;8225672;28;20341;-71
2021/08/07 14:16:59;;;;;;;2.05;0.77;;;;;;;;;;8226559;28;20252;-71
2021/08/07 14:21:05;;;;;;;0.77;0.60;;;;;;;;;;8225369;28;20071;-70
2021/08/07 14:25:11;;;;;;;1.17;0.70;;;;;;;;;;8224520;28;20345;-71
2021/08/07 14:29:18;;;;;;;2.35;0.90;;;;;;;;;;8240225;28;20329;-71
2021/08/07 14:33:24;;;;;;;1.67;0.77;;;;;;;;;;8224455;28;20041;-71
2021/08/07 14:37:30;;;;;;;2.55;0.88;;;;;;;;;;8225696;28;20368;-70
2021/08/07 14:41:35;;;;;;;4.10;0.90;;;;;;;;;;8227213;28;20063;-71
2021/08/07 14:45:42;;;;;;;0.85;0.60;;;;;;;;;;8227052;28;20071;-72
2021/08/07 14:49:50;;;;;;;0.63;0.60;;;;;;;;;;8240270;28;20357;-71
2021/08/07 14:53:55;;;;;;;;;;;;;;;;;;8222909;28;20492;-72
2021/08/07 14:58:00;;;;;;;1.15;0.65;;;;;;;;;;8238277;28;20256;-73
2021/08/07 15:02:05;;;;;;;2.10;0.90;;;;;;;;;;8228493;28;20357;-73
2021/08/07 15:06:11;;;;;;;2.65;1.05;;;;;;;;;;8221525;28;20477;-73
2021/08/07 15:10:16;;;;;;;4.00;1.20;;;;;;;;;;8195387;28;20472;-72
2021/08/07 15:14:22;;;;;;;2.63;0.95;;;;;;;;;;8217613;28;20480;-74
2021/08/07 15:18:27;;;;;;;2.15;1.10;;;;;;;;;;8244252;28;20068;-73
2021/08/07 15:22:32;;;;;;;1.30;0.90;;;;;;;;;;8217699;28;20361;-74
2021/08/07 15:26:38;;;;;;;1.55;0.90;;;;;;;;;;8212742;28;20318;-73
2021/08/07 15:30:46;;;;;;;1.95;0.85;;;;;;;;;;8211832;28;20380;-72
2021/08/07 15:34:52;;;;;;;1.95;0.80;;;;;;;;;;8227639;28;20506;-72
2021/08/07 15:38:56;;;;;;;1.83;0.75;;;;;;;;;;8227808;28;20495;-73
2021/08/07 15:43:02;;;;;;;2.00;0.88;;;;;;;;;;8227541;28;20363;-74
2021/08/07 15:47:07;;;;;;;1.67;0.82;;;;;;;;;;8228784;28;20356;-73
2021/08/07 15:51:11;;;;;;;6.20;0.70;;;;;;;;;;8228560;28;20483;-71
2021/08/07 15:55:16;;;;;;;6.47;2.10;;;;;;;;;;8228519;28;20368;-73
2021/08/07 15:59:21;;;;;;;2.53;1.27;;;;;;;;;;8227393;28;20356;-72
2021/08/07 16:03:26;;;;;;;1.63;1.00;;;;;;;;;;8228211;28;20477;-73
2021/08/07 16:07:31;;;;;;;8.38;1.70;;;;;;;;;;8227836;28;20523;-72
2021/08/07 16:11:39;;;;;;;4.35;1.38;;;;;;;;;;8226236;28;20414;-74
2021/08/07 16:15:44;;;;;;;43.28;7.18;;;;;;;;;;8227289;28;20067;-73
2021/08/07 16:19:50;;;;;;;1.38;0.80;;;;;;;;;;8228345;28;20071;-72
2021/08/07 16:23:56;;;;;;;3.65;1.30;;;;;;;;;;8214898;28;20050;-71
2021/08/07 16:28:02;;;;;;;4.88;1.08;;;;;;;;;;8228730;28;20537;-71
2021/08/07 16:32:07;;;;;;;5.68;0.98;;;;;;;;;;8232426;28;20364;-71
2021/08/07 16:36:12;;;;;;;2.50;1.27;;;;;;;;;;8229144;28;20342;-72
2021/08/07 16:40:15;;;;;;;2.30;1.15;;;;;;;;;;8227124;28;20053;-73
2021/08/07 16:44:19;;;;;;;3.88;1.90;;;;;;;;;;8228353;28;20457;-73
2021/08/07 16:48:23;;;;;;;5.10;2.63;;;;;;;;;;8214485;28;20356;-72
2021/08/07 16:52:27;;;;;;;5.57;3.33;;;;;;;;;;8208285;28;20373;-71
2021/08/07 16:56:31;;;;;;;5.22;1.83;;;;;;;;;;8226058;28;20325;-71
2021/08/07 17:00:37;;;;;;;2.50;1.65;;;;;;;;;;8225758;28;20461;-70
2021/08/07 17:04:43;;;;;;;2.60;1.40;;;;;;;;;;8241380;28;20355;-73
2021/08/07 17:08:49;;;;;;;7.10;1.70;;;;;;;;;;8225613;28;20083;-73
2021/08/07 17:12:53;;;;;;;3.55;2.55;;;;;;;;;;8225517;28;20484;-73
2021/08/07 17:22:35;;;;;;;1.48;0.90;;;;;;;;;;8295642;27;2609171;-71
2021/08/07 17:26:41;;;;;;;1.20;0.90;;;;;;;;;;8353480;28;20332;-73
2021/08/07 17:30:46;;;;;;;4.50;0.80;;;;;;;;;;8350848;28;20370;-72
2021/08/07 17:34:50;;;;;;;8.40;1.10;;;;;;;;;;8332461;28;20047;-72
2021/08/07 17:38:55;;;;;;;1.95;1.20;;;;;;;;;;8351746;28;20058;-72
2021/08/07 17:42:59;;;;;;;125.25;47.67;;;;;;;;;;8320719;28;20494;-73
2021/08/07 17:47:04;;;;;;;50.78;22.17;;;;;;;;;;8298794;28;20505;-72
2021/08/07 17:51:10;;;;;;;81.10;51.90;;;;;;;;;;8317340;28;20479;-72
2021/08/07 17:55:15;;;;;;;23.20;14.07;;;;;;;;;;8297595;28;20367;-72
2021/08/07 17:59:21;;;;;;;21.15;13.02;;;;;;;;;;8329685;28;20324;-72
2021/08/07 18:03:25;;;;;;;19.52;11.70;;;;;;;;;;8332919;28;20490;-72
2021/08/07 18:07:31;;;;;;;7.28;3.10;;;;;;;;;;8314365;28;20611;-72
2021/08/07 18:11:37;;;;;;;7.60;4.00;;;;;;;;;;8331607;28;20513;-72
2021/08/07 18:15:42;;;;;;;5.07;3.50;;;;;;;;;;8350701;28;20342;-72
2021/08/07 18:19:48;;;;;;;39.00;23.25;;;;;;;;;;8341744;28;20078;-72
2021/08/07 18:23:53;;;;;;;13.88;8.52;;;;;;;;;;8317032;28;20489;-72
2021/08/07 18:28:00;;;;;;;13.10;7.15;;;;;;;;;;8292685;28;20057;-72
2021/08/07 18:32:08;;;;;;;12.60;6.57;;;;;;;;;;8256842;28;20482;-72
2021/08/07 18:36:13;;;;;;;34.78;18.23;;;;;;;;;;8244010;28;20355;-73
2021/08/07 18:40:19;;;;;;;40.40;21.98;;;;;;;;;;8260845;28;20076;-72
2021/08/07 18:44:25;;;;;;;14.73;6.18;;;;;;;;;;8244460;28;20498;-72
2021/08/07 18:48:33;;;;;;;55.08;27.75;;;;;;;;;;8260578;28;20372;-73
2021/08/07 18:52:39;;;;;;;9.93;3.60;;;;;;;;;;8225906;28;20468;-72
2021/08/07 18:56:44;;;;;;;27.85;15.07;;;;;;;;;;8226963;28;20366;-72
2021/08/07 19:00:52;;;;;;;157.63;84.50;;;;;;;;;;8243779;28;20472;-72
2021/08/07 19:05:00;;;;;;;8.55;5.28;;;;;;;;;;8260178;28;20108;-72
2021/08/07 19:09:07;;;;;;;9.38;2.55;;;;;;;;;;8260378;28;20483;-72
2021/08/07 19:13:12;;;;;;;7.82;3.17;;;;;;;;;;8243460;28;20045;-72
2021/08/07 19:17:17;;;;;;;5.22;2.60;;;;;;;;;;8260581;28;20372;-72
2021/08/07 19:21:22;;;;;;;8.07;3.80;;;;;;;;;;8260452;28;20367;-72
2021/08/07 19:25:28;;;;;;;12.45;6.20;;;;;;;;;;8259058;28;20080;-71
2021/08/07 19:29:33;;;;;;;7.25;2.72;;;;;;;;;;8260578;28;20342;-72
2021/08/07 19:33:38;;;;;;;6.70;2.72;;;;;;;;;;8243002;28;20444;-72
2021/08/07 19:37:44;;;;;;;4.78;2.95;;;;;;;;;;8260500;28;20361;-72
2021/08/07 19:41:51;;;;;;;7.13;2.55;;;;;;;;;;8259731;28;20479;-72
2021/08/07 19:45:56;;;;;;;5.10;2.70;;;;;;;;;;8242493;28;20506;-73
2021/08/07 19:50:01;;;;;;;8.38;5.15;;;;;;;;;;8261360;28;20494;-72
2021/08/07 19:54:07;;;;;;;3.47;2.15;;;;;;;;;;8224681;28;20488;-72
2021/08/07 19:58:12;;;;;;;4.03;2.35;;;;;;;;;;8225128;28;20470;-72
2021/08/07 20:02:18;;;;;;;4.35;1.83;;;;;;;;;;8242701;28;20387;-72
2021/08/07 20:06:24;;;;;;;4.47;2.45;;;;;;;;;;8259191;28;20384;-72
2021/08/07 20:10:29;;;;;;;3.45;2.20;;;;;;;;;;8260048;28;20498;-72
2021/08/07 20:14:35;;;;;;;16.20;9.07;;;;;;;;;;8208745;28;20371;-72
2021/08/07 20:18:40;;;;;;;4.13;2.60;;;;;;;;;;8260868;28;20096;-72
2021/08/07 20:22:45;;;;;;;4.18;2.78;;;;;;;;;;8259374;28;20495;-72
2021/08/07 20:26:51;;;;;;;4.90;2.60;;;;;;;;;;8242929;28;20068;-73
2021/08/07 20:30:56;;;;;;;6.30;3.05;;;;;;;;;;8257187;28;20484;-72
2021/08/07 20:35:02;;;;;;;11.35;3.97;;;;;;;;;;8241036;28;20392;-72
2021/08/07 20:39:08;;;;;;;5.80;2.63;;;;;;;;;;8241736;28;20518;-72
2021/08/07 20:43:14;;;;;;;3.80;1.90;;;;;;;;;;8258515;28;20346;-73
2021/08/07 20:47:20;;;;;;;3.65;2.17;;;;;;;;;;8240380;28;20383;-73
2021/08/07 20:51:25;;;;;;;6.03;2.88;;;;;;;;;;8258188;28;20353;-72
2021/08/07 20:55:30;;;;;;;7.63;3.15;;;;;;;;;;8240070;28;20045;-72
2021/08/07 20:59:35;;;;;;;8.30;3.10;;;;;;;;;;8223600;28;20406;-73
2021/08/07 21:03:41;;;;;;;7.13;3.25;;;;;;;;;;8257631;28;20510;-72
2021/08/07 21:07:46;;;;;;;9.35;3.88;;;;;;;;;;8257870;28;20044;-73
2021/08/07 21:11:53;;;;;;;5.53;2.40;;;;;;;;;;8258714;28;20424;-73
2021/08/07 21:15:58;;;;;;;4.57;2.28;;;;;;;;;;8257875;28;20098;-74
2021/08/07 21:20:05;;;;;;;5.72;2.22;;;;;;;;;;8239791;28;20380;-73
2021/08/07 21:24:11;;;;;;;6.28;3.60;;;;;;;;;;8220444;28;20049;-74
2021/08/07 21:28:16;;;;;;;5.40;2.17;;;;;;;;;;8206834;28;20535;-74
2021/08/07 21:32:21;;;;;;;4.30;2.05;;;;;;;;;;8205982;28;20395;-73
2021/08/07 21:36:27;;;;;;;13.30;2.20;;;;;;;;;;8223712;28;20046;-73
2021/08/07 21:40:32;;;;;;;6.28;2.17;;;;;;;;;;8191754;28;20045;-74
2021/08/07 21:44:40;;;;;;;5.18;2.17;;;;;;;;;;8223981;28;20484;-74
2021/08/07 21:48:44;;;;;;;4.47;2.22;;;;;;;;;;8204051;28;20492;-74
2021/08/07 21:52:52;;;;;;;3.67;2.00;;;;;;;;;;8203666;28;20053;-73
2021/08/07 21:56:58;;;;;;;2.47;1.60;;;;;;;;;;8224173;28;20488;-71
2021/08/07 22:01:07;;;;;;;5.05;1.58;;;;;;;;;;8190089;28;20344;-74
2021/08/07 22:05:15;;;;;;;18.02;2.58;;;;;;;;;;8207098;28;20068;-74
2021/08/07 22:09:20;;;;;;;3.58;1.92;;;;;;;;;;8211636;28;20477;-73
2021/08/07 22:13:26;;;;;;;3.75;1.58;;;;;;;;;;8211770;28;20341;-73
2021/08/07 22:17:32;;;;;;;4.25;1.77;;;;;;;;;;8230114;28;20064;-73
2021/08/07 22:21:37;;;;;;;3.75;1.88;;;;;;;;;;8233893;28;20379;-73
2021/08/07 22:25:43;;;;;;;3.70;1.90;;;;;;;;;;8262700;28;20411;-73
2021/08/07 22:29:48;;;;;;;3.63;1.98;;;;;;;;;;8244458;28;20488;-73
2021/08/07 22:33:55;;;;;;;2.83;1.90;;;;;;;;;;8261229;28;20481;-73
2021/08/07 22:38:04;;;;;;;4.07;1.60;;;;;;;;;;8245844;28;20368;-73
2021/08/07 22:42:10;;;;;;;3.80;1.90;;;;;;;;;;8262887;28;20470;-73
2021/08/07 22:46:16;;;;;;;3.10;2.17;;;;;;;;;;8263990;28;20059;-73
2021/08/07 22:50:25;;;;;;;2.63;1.40;;;;;;;;;;8261900;28;20371;-73
2021/08/07 22:54:30;;;;;;;;;;;;;;;;;;8244428;28;20083;-73
2021/08/07 22:58:35;;;;;;;4.72;3.05;;;;;;;;;;8263165;28;20263;-73
2021/08/07 23:02:40;;;;;;;3.88;2.35;;;;;;;;;;8243590;28;20461;-73
2021/08/07 23:06:46;;;;;;;4.25;2.25;;;;;;;;;;8244643;28;20583;-73
2021/08/07 23:10:52;;;;;;;3.40;1.80;;;;;;;;;;8261019;28;20486;-73
2021/08/07 23:14:57;;;;;;;5.00;2.03;;;;;;;;;;8259938;28;20492;-73
2021/08/07 23:19:03;;;;;;;2.78;1.67;;;;;;;;;;8260026;28;20309;-73
2021/08/07 23:23:07;;;;;;;3.78;1.83;;;;;;;;;;8226871;28;20357;-73
2021/08/07 23:27:13;;;;;;;3.78;1.90;;;;;;;;;;8228142;28;20114;-73
2021/08/07 23:31:18;;;;;;;4.53;1.77;;;;;;;;;;8193215;28;20045;-72
2021/08/07 23:35:23;;;;;;;4.03;2.05;;;;;;;;;;8229638;28;20479;-73
2021/08/07 23:39:29;;;;;;;3.88;2.00;;;;;;;;;;8209096;28;20472;-73
2021/08/07 23:43:37;;;;;;;3.03;1.67;;;;;;;;;;8229468;28;20448;-73
2021/08/07 23:47:41;;;;;;;3.05;1.70;;;;;;;;;;8229724;28;20686;-73
2021/08/07 23:51:46;;;;;;;3.17;1.90;;;;;;;;;;8210763;28;20381;-73
2021/08/07 23:55:54;;;;;;;2.58;1.67;;;;;;;;;;8210193;28;20341;-73
